sensor_id;sensor_type;location;lat;lon;timestamp;pressure;altitude;pressure_sealevel;temperature;humidity
16580;BME280;8402;51.466;6.806;2022-10-26T00:01:20;101200.75;;;12.64;92.18
16580;BME280;8402;51.466;6.806;2022-10-26T00:03:48;101192.91;;;12.62;92.19
16580;BME280;8402;51.466;6.806;2022-10-26T00:06:18;101193.22;;;12.61;92.03
16580;BME280;8402;51.466;6.806;2022-10-26T00:08:47;101185.06;;;12.61;92.37
16580;BME280;8402;51.466;6.806;2022-10-26T00:11:16;101185.38;;;12.59;92.14
16580;BME280;8402;51.466;6.806;2022-10-26T00:13:46;101177.22;;;12.59;92.56
16580;BME280;8402;51.466;6.806;2022-10-26T00:16:16;101179.94;;;12.59;92.43
16580;BME280;8402;51.466;6.806;2022-10-26T00:18:45;101172.56;;;12.60;92.42
16580;BME280;8402;51.466;6.806;2022-10-26T00:21:14;101174.19;;;12.61;92.60
16580;BME280;8402;51.466;6.806;2022-10-26T00:23:42;101171.78;;;12.59;92.99
16580;BME280;8402;51.466;6.806;2022-10-26T00:26:10;101179.16;;;12.59;92.66
16580;BME280;8402;51.466;6.806;2022-10-26T00:28:38;101176.41;;;12.59;93.09
16580;BME280;8402;51.466;6.806;2022-10-26T00:31:11;101174.81;;;12.58;93.08
16580;BME280;8402;51.466;6.806;2022-10-26T00:33:39;101175.44;;;12.55;93.44
16580;BME280;8402;51.466;6.806;2022-10-26T00:36:08;101175.44;;;12.55;93.49
16580;BME280;8402;51.466;6.806;2022-10-26T00:38:36;101175.91;;;12.57;93.69
16580;BME280;8402;51.466;6.806;2022-10-26T00:41:04;101174.81;;;12.58;93.85
16580;BME280;8402;51.466;6.806;2022-10-26T00:43:34;101177.22;;;12.59;93.54
16580;BME280;8402;51.466;6.806;2022-10-26T00:46:05;101174.19;;;12.61;93.66
16580;BME280;8402;51.466;6.806;2022-10-26T00:48:38;101176.91;;;12.61;93.85
16580;BME280;8402;51.466;6.806;2022-10-26T00:51:09;101174.66;;;12.63;93.57
16580;BME280;8402;51.466;6.806;2022-10-26T00:53:38;101178.97;;;12.64;93.79
16580;BME280;8402;51.466;6.806;2022-10-26T00:56:07;101169.72;;;12.65;94.12
16580;BME280;8402;51.466;6.806;2022-10-26T00:58:35;101168.59;;;12.66;94.15
16580;BME280;8402;51.466;6.806;2022-10-26T01:01:04;101168.09;;;12.64;94.30
16580;BME280;8402;51.466;6.806;2022-10-26T01:03:32;101157.19;;;12.64;94.45
16580;BME280;8402;51.466;6.806;2022-10-26T01:06:03;101154.97;;;12.66;94.72
16580;BME280;8402;51.466;6.806;2022-10-26T01:08:32;101153.84;;;12.67;94.82
16580;BME280;8402;51.466;6.806;2022-10-26T01:11:00;101154.34;;;12.69;94.47
16580;BME280;8402;51.466;6.806;2022-10-26T01:13:31;101148.25;;;12.72;94.86
16580;BME280;8402;51.466;6.806;2022-10-26T01:16:20;101149.22;;;12.76;94.79
16580;BME280;8402;51.466;6.806;2022-10-26T01:18:59;101151.31;;;12.79;94.92
16580;BME280;8402;51.466;6.806;2022-10-26T01:21:45;101144.75;;;12.80;94.54
16580;BME280;8402;51.466;6.806;2022-10-26T01:24:25;101142.50;;;12.82;94.87
16580;BME280;8402;51.466;6.806;2022-10-26T01:27:06;101134.81;;;12.84;94.82
16580;BME280;8402;51.466;6.806;2022-10-26T01:29:52;101127.13;;;12.86;94.58
16580;BME280;8402;51.466;6.806;2022-10-26T01:32:26;101131.94;;;12.89;95.39
16580;BME280;8402;51.466;6.806;2022-10-26T01:35:03;101132.91;;;12.93;95.10
16580;BME280;8402;51.466;6.806;2022-10-26T01:37:35;101130.66;;;12.95;95.14
16580;BME280;8402;51.466;6.806;2022-10-26T01:40:08;101121.34;;;12.97;94.87
16580;BME280;8402;51.466;6.806;2022-10-26T01:42:43;101130.00;;;12.99;95.37
16580;BME280;8402;51.466;6.806;2022-10-26T01:45:13;101120.72;;;13.00;94.81
16580;BME280;8402;51.466;6.806;2022-10-26T01:47:44;101121.22;;;13.02;95.21
16580;BME280;8402;51.466;6.806;2022-10-26T01:50:15;101123.94;;;13.02;94.85
16580;BME280;8402;51.466;6.806;2022-10-26T01:52:48;101123.28;;;13.05;94.84
16580;BME280;8402;51.466;6.806;2022-10-26T01:55:42;101123.94;;;13.02;94.66
16580;BME280;8402;51.466;6.806;2022-10-26T02:01:07;101108.53;;;13.06;94.94
16580;BME280;8402;51.466;6.806;2022-10-26T02:03:44;101104.69;;;13.07;94.85
16580;BME280;8402;51.466;6.806;2022-10-26T02:06:17;101095.41;;;13.08;94.72
16580;BME280;8402;51.466;6.806;2022-10-26T02:08:55;101100.03;;;13.07;94.73
16580;BME280;8402;51.466;6.806;2022-10-26T02:11:33;101093.78;;;13.07;94.78
16580;BME280;8402;51.466;6.806;2022-10-26T02:14:09;101092.97;;;13.06;94.99
16580;BME280;8402;51.466;6.806;2022-10-26T02:16:48;101097.63;;;13.06;94.65
16580;BME280;8402;51.466;6.806;2022-10-26T02:19:28;101089.00;;;13.04;94.58
16580;BME280;8402;51.466;6.806;2022-10-26T02:22:03;101092.84;;;13.03;94.26
16580;BME280;8402;51.466;6.806;2022-10-26T02:24:33;101092.84;;;13.03;94.48
16580;BME280;8402;51.466;6.806;2022-10-26T02:27:05;101085.78;;;13.02;94.63
16580;BME280;8402;51.466;6.806;2022-10-26T02:29:35;101086.13;;;13.00;94.87
16580;BME280;8402;51.466;6.806;2022-10-26T02:32:04;101087.22;;;12.99;94.80
16580;BME280;8402;51.466;6.806;2022-10-26T02:34:37;101085.28;;;13.00;94.50
16580;BME280;8402;51.466;6.806;2022-10-26T02:37:07;101080.19;;;12.98;95.14
16580;BME280;8402;51.466;6.806;2022-10-26T02:39:38;101077.78;;;12.97;95.18
16580;BME280;8402;51.466;6.806;2022-10-26T02:42:09;101075.06;;;12.97;95.19
16580;BME280;8402;51.466;6.806;2022-10-26T02:44:41;101075.06;;;12.97;95.01
16580;BME280;8402;51.466;6.806;2022-10-26T02:47:11;101068.81;;;12.96;95.29
16580;BME280;8402;51.466;6.806;2022-10-26T02:49:41;101076.81;;;12.92;96.19
16580;BME280;8402;51.466;6.806;2022-10-26T02:52:14;101072.47;;;12.91;96.34
16580;BME280;8402;51.466;6.806;2022-10-26T02:54:50;101063.84;;;12.89;96.61
16580;BME280;8402;51.466;6.806;2022-10-26T02:57:23;101072.81;;;12.90;96.63
16580;BME280;8402;51.466;6.806;2022-10-26T02:59:52;101062.38;;;12.92;96.72
16580;BME280;8402;51.466;6.806;2022-10-26T03:02:21;101058.88;;;12.91;96.93
16580;BME280;8402;51.466;6.806;2022-10-26T03:04:51;101061.59;;;12.91;96.98
16580;BME280;8402;51.466;6.806;2022-10-26T03:07:21;101060.00;;;12.90;97.54
16580;BME280;8402;51.466;6.806;2022-10-26T03:09:49;101055.66;;;12.89;97.55
16580;BME280;8402;51.466;6.806;2022-10-26T03:12:17;101054.22;;;12.92;97.22
16580;BME280;8402;51.466;6.806;2022-10-26T03:14:45;101060.16;;;12.94;97.29
16580;BME280;8402;51.466;6.806;2022-10-26T03:17:13;101050.53;;;12.97;97.28
16580;BME280;8402;51.466;6.806;2022-10-26T03:19:41;101046.69;;;12.98;97.43
16580;BME280;8402;51.466;6.806;2022-10-26T03:22:10;101049.88;;;13.00;96.99
16580;BME280;8402;51.466;6.806;2022-10-26T03:24:37;101052.59;;;13.00;97.40
16580;BME280;8402;51.466;6.806;2022-10-26T03:27:05;101052.31;;;13.01;97.36
16580;BME280;8402;51.466;6.806;2022-10-26T03:29:33;101053.91;;;13.02;97.51
16580;BME280;8402;51.466;6.806;2022-10-26T03:32:01;101055.50;;;13.03;97.29
16580;BME280;8402;51.466;6.806;2022-10-26T03:34:29;101056.31;;;13.04;97.49
16580;BME280;8402;51.466;6.806;2022-10-26T03:36:57;101055.16;;;13.05;97.17
16580;BME280;8402;51.466;6.806;2022-10-26T03:39:26;101057.28;;;13.08;97.65
16580;BME280;8402;51.466;6.806;2022-10-26T03:41:53;101058.22;;;13.12;97.21
16580;BME280;8402;51.466;6.806;2022-10-26T03:44:22;101049.72;;;13.13;97.44
16580;BME280;8402;51.466;6.806;2022-10-26T03:46:49;101050.66;;;13.17;97.61
16580;BME280;8402;51.466;6.806;2022-10-26T03:49:17;101051.47;;;13.18;97.98
16580;BME280;8402;51.466;6.806;2022-10-26T03:51:45;101051.97;;;13.20;97.57
16580;BME280;8402;51.466;6.806;2022-10-26T03:54:13;101057.59;;;13.24;97.84
16580;BME280;8402;51.466;6.806;2022-10-26T03:56:42;101042.50;;;13.26;97.82
16580;BME280;8402;51.466;6.806;2022-10-26T03:59:10;101049.56;;;13.27;98.22
16580;BME280;8402;51.466;6.806;2022-10-26T04:01:37;101052.28;;;13.27;97.88
16580;BME280;8402;51.466;6.806;2022-10-26T04:04:06;101041.88;;;13.29;97.86
16580;BME280;8402;51.466;6.806;2022-10-26T04:06:34;101045.06;;;13.31;98.18
16580;BME280;8402;51.466;6.806;2022-10-26T04:09:02;101041.22;;;13.32;98.17
16580;BME280;8402;51.466;6.806;2022-10-26T04:11:30;101041.69;;;13.34;98.04
16580;BME280;8402;51.466;6.806;2022-10-26T04:13:59;101041.03;;;13.37;97.84
16580;BME280;8402;51.466;6.806;2022-10-26T04:16:27;101037.66;;;13.40;97.95
16580;BME280;8402;51.466;6.806;2022-10-26T04:18:59;101038.44;;;13.41;98.12
16580;BME280;8402;51.466;6.806;2022-10-26T04:21:26;101038.91;;;13.43;98.28
16580;BME280;8402;51.466;6.806;2022-10-26T04:23:54;101053.84;;;13.45;97.83
16580;BME280;8402;51.466;6.806;2022-10-26T04:26:22;101043.41;;;13.47;97.75
16580;BME280;8402;51.466;6.806;2022-10-26T04:28:50;101047.72;;;13.48;98.11
16580;BME280;8402;51.466;6.806;2022-10-26T04:31:19;101051.75;;;13.51;98.24
16580;BME280;8402;51.466;6.806;2022-10-26T04:33:47;101049.16;;;13.55;98.19
16580;BME280;8402;51.466;6.806;2022-10-26T04:36:15;101047.69;;;13.57;98.44
16580;BME280;8402;51.466;6.806;2022-10-26T04:38:43;101046.25;;;13.60;98.35
16580;BME280;8402;51.466;6.806;2022-10-26T04:41:11;101040.81;;;13.60;98.18
16580;BME280;8402;51.466;6.806;2022-10-26T04:43:38;101045.13;;;13.61;98.31
16580;BME280;8402;51.466;6.806;2022-10-26T04:46:06;101039.22;;;13.59;98.30
16580;BME280;8402;51.466;6.806;2022-10-26T04:48:38;101031.66;;;13.56;98.41
16580;BME280;8402;51.466;6.806;2022-10-26T04:51:05;101035.06;;;13.53;98.38
16580;BME280;8402;51.466;6.806;2022-10-26T04:53:33;101032.34;;;13.53;99.21
16580;BME280;8402;51.466;6.806;2022-10-26T04:56:01;101034.25;;;13.52;99.35
16580;BME280;8402;51.466;6.806;2022-10-26T04:58:29;101040.97;;;13.55;99.65
16580;BME280;8402;51.466;6.806;2022-10-26T05:00:57;101035.53;;;13.55;99.77
16580;BME280;8402;51.466;6.806;2022-10-26T05:03:25;101036.00;;;13.57;100.00
16580;BME280;8402;51.466;6.806;2022-10-26T05:05:57;101028.31;;;13.59;100.00
16580;BME280;8402;51.466;6.806;2022-10-26T05:08:26;101030.69;;;13.60;100.00
16580;BME280;8402;51.466;6.806;2022-10-26T05:10:54;101031.50;;;13.61;100.00
16580;BME280;8402;51.466;6.806;2022-10-26T05:13:23;101028.09;;;13.64;100.00
16580;BME280;8402;51.466;6.806;2022-10-26T05:15:56;101035.63;;;13.67;100.00
16580;BME280;8402;51.466;6.806;2022-10-26T05:18:24;101033.84;;;13.71;100.00
16580;BME280;8402;51.466;6.806;2022-10-26T05:20:53;101037.53;;;13.75;100.00
16580;BME280;8402;51.466;6.806;2022-10-26T05:23:22;101036.84;;;13.78;100.00
16580;BME280;8402;51.466;6.806;2022-10-26T05:25:50;101033.50;;;13.81;100.00
16580;BME280;8402;51.466;6.806;2022-10-26T05:28:18;101038.63;;;13.83;100.00
16580;BME280;8402;51.466;6.806;2022-10-26T05:30:46;101036.34;;;13.85;100.00
16580;BME280;8402;51.466;6.806;2022-10-26T05:33:14;101031.06;;;13.88;100.00
16580;BME280;8402;51.466;6.806;2022-10-26T05:35:42;101031.97;;;13.92;100.00
16580;BME280;8402;51.466;6.806;2022-10-26T05:38:13;101029.06;;;13.97;100.00
16580;BME280;8402;51.466;6.806;2022-10-26T05:40:47;101034.81;;;14.04;100.00
16580;BME280;8402;51.466;6.806;2022-10-26T05:43:17;101033.50;;;14.11;100.00
16580;BME280;8402;51.466;6.806;2022-10-26T05:45:45;101021.91;;;14.14;100.00
16580;BME280;8402;51.466;6.806;2022-10-26T05:48:13;101025.13;;;14.16;100.00
16580;BME280;8402;51.466;6.806;2022-10-26T05:50:41;101030.69;;;14.19;100.00
16580;BME280;8402;51.466;6.806;2022-10-26T05:53:09;101027.63;;;14.21;100.00
16580;BME280;8402;51.466;6.806;2022-10-26T05:55:39;101027.78;;;14.24;100.00
16580;BME280;8402;51.466;6.806;2022-10-26T05:58:10;101022.44;;;14.28;100.00
16580;BME280;8402;51.466;6.806;2022-10-26T06:00:43;101021.81;;;14.31;100.00
16580;BME280;8402;51.466;6.806;2022-10-26T06:03:21;101033.63;;;14.35;100.00
16580;BME280;8402;51.466;6.806;2022-10-26T06:05:53;101035.38;;;14.40;100.00
16580;BME280;8402;51.466;6.806;2022-10-26T06:08:23;101036.63;;;14.42;100.00
16580;BME280;8402;51.466;6.806;2022-10-26T06:10:55;101036.47;;;14.47;100.00
16580;BME280;8402;51.466;6.806;2022-10-26T06:13:25;101034.34;;;14.53;100.00
16580;BME280;8402;51.466;6.806;2022-10-26T06:16:02;101034.00;;;14.54;99.08
16580;BME280;8402;51.466;6.806;2022-10-26T06:18:41;101033.38;;;14.57;99.02
16580;BME280;8402;51.466;6.806;2022-10-26T06:21:24;101028.34;;;14.59;99.12
16580;BME280;8402;51.466;6.806;2022-10-26T06:23:59;101044.06;;;14.63;99.11
16580;BME280;8402;51.466;6.806;2022-10-26T06:26:35;101034.72;;;14.64;98.58
16580;BME280;8402;51.466;6.806;2022-10-26T06:29:16;101036.34;;;14.65;98.92
16580;BME280;8402;51.466;6.806;2022-10-26T06:31:47;101037.28;;;14.69;98.58
16580;BME280;8402;51.466;6.806;2022-10-26T06:34:22;101030.66;;;14.70;98.55
16580;BME280;8402;51.466;6.806;2022-10-26T06:36:52;101040.59;;;14.74;98.67
16580;BME280;8402;51.466;6.806;2022-10-26T06:39:22;101041.41;;;14.75;99.02
16580;BME280;8402;51.466;6.806;2022-10-26T06:41:54;101037.53;;;14.76;98.24
16580;BME280;8402;51.466;6.806;2022-10-26T06:44:23;101035.75;;;14.80;98.65
16580;BME280;8402;51.466;6.806;2022-10-26T06:46:56;101037.34;;;14.81;97.99
16580;BME280;8402;51.466;6.806;2022-10-26T06:49:30;101038.25;;;14.85;98.40
16580;BME280;8402;51.466;6.806;2022-10-26T06:52:02;101032.78;;;14.85;97.40
16580;BME280;8402;51.466;6.806;2022-10-26T06:54:46;101038.72;;;14.87;96.84
16580;BME280;8402;51.466;6.806;2022-10-26T06:57:16;101026.47;;;14.93;97.14
16580;BME280;8402;51.466;6.806;2022-10-26T06:59:48;101031.25;;;14.96;96.93
16580;BME280;8402;51.466;6.806;2022-10-26T07:02:17;101042.63;;;14.98;96.99
16580;BME280;8402;51.466;6.806;2022-10-26T07:04:45;101047.75;;;15.00;96.66
16580;BME280;8402;51.466;6.806;2022-10-26T07:07:17;101044.03;;;15.04;96.56
16580;BME280;8402;51.466;6.806;2022-10-26T07:09:45;101046.56;;;15.09;96.21
16580;BME280;8402;51.466;6.806;2022-10-26T07:12:15;101057.28;;;15.14;96.51
16580;BME280;8402;51.466;6.806;2022-10-26T07:14:43;101052.25;;;15.17;96.04
16580;BME280;8402;51.466;6.806;2022-10-26T07:17:11;101050.44;;;15.21;95.26
16580;BME280;8402;51.466;6.806;2022-10-26T07:19:39;101055.59;;;15.22;94.87
16580;BME280;8402;51.466;6.806;2022-10-26T07:22:08;101064.59;;;15.23;95.45
16580;BME280;8402;51.466;6.806;2022-10-26T07:24:36;101054.09;;;15.25;94.62
16580;BME280;8402;51.466;6.806;2022-10-26T07:27:04;101064.34;;;15.28;95.40
16580;BME280;8402;51.466;6.806;2022-10-26T07:29:33;101063.16;;;15.37;95.15
16580;BME280;8402;51.466;6.806;2022-10-26T07:32:01;101063.75;;;15.55;94.49
16580;BME280;8402;51.466;6.806;2022-10-26T07:34:29;101061.75;;;15.77;94.09
16580;BME280;8402;51.466;6.806;2022-10-26T07:36:58;101074.28;;;15.90;92.95
16580;BME280;8402;51.466;6.806;2022-10-26T07:39:26;101075.78;;;15.87;92.80
16580;BME280;8402;51.466;6.806;2022-10-26T07:41:53;101083.19;;;15.87;93.02
16580;BME280;8402;51.466;6.806;2022-10-26T07:44:21;101088.97;;;15.85;92.73
16580;BME280;8402;51.466;6.806;2022-10-26T07:46:51;101093.66;;;15.85;93.30
16580;BME280;8402;51.466;6.806;2022-10-26T07:49:19;101093.66;;;15.85;92.84
16580;BME280;8402;51.466;6.806;2022-10-26T07:51:53;101097.31;;;15.89;93.46
16580;BME280;8402;51.466;6.806;2022-10-26T07:54:20;101090.25;;;15.88;93.12
16580;BME280;8402;51.466;6.806;2022-10-26T07:56:48;101089.13;;;15.89;92.79
16580;BME280;8402;51.466;6.806;2022-10-26T07:59:16;101078.97;;;15.89;93.42
16580;BME280;8402;51.466;6.806;2022-10-26T08:01:44;101078.97;;;15.89;93.00
16580;BME280;8402;51.466;6.806;2022-10-26T08:04:14;101070.84;;;15.93;93.55
16580;BME280;8402;51.466;6.806;2022-10-26T08:06:42;101076.34;;;15.93;93.12
16580;BME280;8402;51.466;6.806;2022-10-26T08:09:10;101075.88;;;15.91;93.19
16580;BME280;8402;51.466;6.806;2022-10-26T08:11:37;101077.47;;;15.92;93.24
16580;BME280;8402;51.466;6.806;2022-10-26T08:14:05;101075.22;;;15.94;93.93
16580;BME280;8402;51.466;6.806;2022-10-26T08:16:33;101072.47;;;15.94;93.50
16580;BME280;8402;51.466;6.806;2022-10-26T08:19:01;101080.00;;;15.97;94.20
16580;BME280;8402;51.466;6.806;2022-10-26T08:21:30;101087.50;;;16.00;93.73
16580;BME280;8402;51.466;6.806;2022-10-26T08:24:06;101086.41;;;16.01;93.57
16580;BME280;8402;51.466;6.806;2022-10-26T08:26:34;101084.78;;;16.00;94.41
16580;BME280;8402;51.466;6.806;2022-10-26T08:29:01;101089.69;;;16.07;93.55
16580;BME280;8402;51.466;6.806;2022-10-26T08:31:30;101095.72;;;16.12;93.73
16580;BME280;8402;51.466;6.806;2022-10-26T08:33:58;101112.03;;;16.21;93.31
16580;BME280;8402;51.466;6.806;2022-10-26T08:36:27;101105.53;;;16.26;93.40
16580;BME280;8402;51.466;6.806;2022-10-26T08:38:56;101101.44;;;16.32;93.37
16580;BME280;8402;51.466;6.806;2022-10-26T08:41:32;101121.28;;;16.41;92.21
16580;BME280;8402;51.466;6.806;2022-10-26T08:44:06;101126.06;;;16.44;92.27
16580;BME280;8402;51.466;6.806;2022-10-26T08:46:40;101126.97;;;16.48;92.47
16580;BME280;8402;51.466;6.806;2022-10-26T08:49:21;101126.97;;;16.48;92.24
16580;BME280;8402;51.466;6.806;2022-10-26T08:51:52;101116.22;;;16.55;92.57
16580;BME280;8402;51.466;6.806;2022-10-26T08:54:31;101120.34;;;16.61;91.80
16580;BME280;8402;51.466;6.806;2022-10-26T08:57:04;101121.94;;;16.74;91.42
16580;BME280;8402;51.466;6.806;2022-10-26T08:59:41;101129.44;;;16.77;91.17
16580;BME280;8402;51.466;6.806;2022-10-26T09:02:11;101137.88;;;16.85;90.95
16580;BME280;8402;51.466;6.806;2022-10-26T09:04:40;101145.16;;;16.93;90.98
16580;BME280;8402;51.466;6.806;2022-10-26T09:07:16;101153.59;;;17.00;90.75
16580;BME280;8402;51.466;6.806;2022-10-26T09:09:58;101159.28;;;17.07;90.66
16580;BME280;8402;51.466;6.806;2022-10-26T09:12:37;101155.72;;;17.19;90.93
16580;BME280;8402;51.466;6.806;2022-10-26T09:15:13;101152.22;;;17.34;89.78
16580;BME280;8402;51.466;6.806;2022-10-26T09:17:48;101158.38;;;17.43;89.72
16580;BME280;8402;51.466;6.806;2022-10-26T09:23:26;101165.56;;;17.64;89.58
16580;BME280;8402;51.466;6.806;2022-10-26T09:25:59;101181.44;;;17.70;89.51
16580;BME280;8402;51.466;6.806;2022-10-26T09:28:30;101173.53;;;17.81;88.38
16580;BME280;8402;51.466;6.806;2022-10-26T09:31:00;101173.34;;;17.90;89.51
16580;BME280;8402;51.466;6.806;2022-10-26T09:33:34;101176.03;;;18.02;87.24
16580;BME280;8402;51.466;6.806;2022-10-26T09:36:07;101170.72;;;18.09;88.26
16580;BME280;8402;51.466;6.806;2022-10-26T09:38:44;101191.69;;;18.17;88.36
16580;BME280;8402;51.466;6.806;2022-10-26T09:41:21;101187.97;;;18.25;87.70
16580;BME280;8402;51.466;6.806;2022-10-26T09:43:58;101197.13;;;18.29;87.81
16580;BME280;8402;51.466;6.806;2022-10-26T09:46:31;101193.22;;;18.30;88.09
16580;BME280;8402;51.466;6.806;2022-10-26T09:49:04;101195.16;;;18.30;88.24
16580;BME280;8402;51.466;6.806;2022-10-26T09:51:34;101199.56;;;18.34;87.57
16580;BME280;8402;51.466;6.806;2022-10-26T09:54:07;101206.31;;;18.37;88.04
16580;BME280;8402;51.466;6.806;2022-10-26T09:56:41;101207.72;;;18.47;87.84
16580;BME280;8402;51.466;6.806;2022-10-26T09:59:11;101218.97;;;18.57;87.42
16580;BME280;8402;51.466;6.806;2022-10-26T10:01:40;101217.66;;;18.67;87.69
16580;BME280;8402;51.466;6.806;2022-10-26T10:04:15;101220.16;;;18.72;86.39
16580;BME280;8402;51.466;6.806;2022-10-26T10:06:46;101219.41;;;18.75;86.62
16580;BME280;8402;51.466;6.806;2022-10-26T10:09:16;101224.97;;;18.79;87.26
16580;BME280;8402;51.466;6.806;2022-10-26T10:11:49;101219.59;;;18.82;86.47
16580;BME280;8402;51.466;6.806;2022-10-26T10:14:23;101223.66;;;18.88;87.13
16580;BME280;8402;51.466;6.806;2022-10-26T10:16:53;101229.75;;;18.97;86.88
16580;BME280;8402;51.466;6.806;2022-10-26T10:19:25;101217.72;;;19.06;87.00
16580;BME280;8402;51.466;6.806;2022-10-26T10:21:55;101216.72;;;19.14;87.31
16580;BME280;8402;51.466;6.806;2022-10-26T10:24:27;101221.94;;;19.19;85.96
16580;BME280;8402;51.466;6.806;2022-10-26T10:26:59;101226.53;;;19.31;83.31
16580;BME280;8402;51.466;6.806;2022-10-26T10:29:29;101230.94;;;19.35;85.12
16580;BME280;8402;51.466;6.806;2022-10-26T10:31:58;101226.38;;;19.43;85.21
16580;BME280;8402;51.466;6.806;2022-10-26T10:34:29;101235.88;;;19.45;85.06
16580;BME280;8402;51.466;6.806;2022-10-26T10:36:57;101234.44;;;19.51;85.75
16580;BME280;8402;51.466;6.806;2022-10-26T10:39:37;101240.78;;;19.56;84.85
16580;BME280;8402;51.466;6.806;2022-10-26T10:42:16;101249.22;;;19.63;83.63
16580;BME280;8402;51.466;6.806;2022-10-26T10:44:45;101245.03;;;19.69;85.05
16580;BME280;8402;51.466;6.806;2022-10-26T10:47:20;101251.41;;;19.73;84.57
16580;BME280;8402;51.466;6.806;2022-10-26T10:49:53;101258.56;;;19.77;84.24
16580;BME280;8402;51.466;6.806;2022-10-26T10:52:25;101264.19;;;19.85;84.99
16580;BME280;8402;51.466;6.806;2022-10-26T10:55:05;101262.69;;;19.87;84.45
16580;BME280;8402;51.466;6.806;2022-10-26T10:57:43;101271.50;;;19.96;84.56
16580;BME280;8402;51.466;6.806;2022-10-26T11:00:15;101270.06;;;20.02;84.36
16580;BME280;8402;51.466;6.806;2022-10-26T11:03:14;101266.88;;;20.00;83.60
16580;BME280;8402;51.466;6.806;2022-10-26T11:05:59;101267.72;;;20.04;82.94
16580;BME280;8402;51.466;6.806;2022-10-26T11:08:35;101267.81;;;20.08;82.69
16580;BME280;8402;51.466;6.806;2022-10-26T11:11:08;101270.63;;;20.12;83.51
16580;BME280;8402;51.466;6.806;2022-10-26T11:13:45;101263.22;;;20.16;83.51
16580;BME280;8402;51.466;6.806;2022-10-26T11:16:19;101268.53;;;20.28;84.08
16580;BME280;8402;51.466;6.806;2022-10-26T11:18:53;101279.69;;;20.35;83.23
16580;BME280;8402;51.466;6.806;2022-10-26T11:21:25;101273.44;;;20.38;83.74
16580;BME280;8402;51.466;6.806;2022-10-26T11:24:13;101280.13;;;20.37;82.64
16580;BME280;8402;51.466;6.806;2022-10-26T11:26:46;101276.69;;;20.44;82.93
16580;BME280;8402;51.466;6.806;2022-10-26T11:29:22;101281.06;;;20.45;82.93
16580;BME280;8402;51.466;6.806;2022-10-26T11:31:57;101286.63;;;20.48;83.13
16580;BME280;8402;51.466;6.806;2022-10-26T11:34:30;101292.22;;;20.52;83.35
16580;BME280;8402;51.466;6.806;2022-10-26T11:37:09;101283.56;;;20.53;83.94
16580;BME280;8402;51.466;6.806;2022-10-26T11:39:44;101288.03;;;20.61;83.51
16580;BME280;8402;51.466;6.806;2022-10-26T11:42:27;101285.69;;;20.64;83.34
16580;BME280;8402;51.466;6.806;2022-10-26T11:45:02;101293.75;;;20.72;82.81
16580;BME280;8402;51.466;6.806;2022-10-26T11:47:39;101295.72;;;20.72;82.96
16580;BME280;8402;51.466;6.806;2022-10-26T11:50:15;101294.88;;;20.71;82.99
16580;BME280;8402;51.466;6.806;2022-10-26T11:52:47;101293.38;;;20.74;82.90
16580;BME280;8402;51.466;6.806;2022-10-26T11:55:17;101291.91;;;20.80;83.10
16580;BME280;8402;51.466;6.806;2022-10-26T11:57:47;101294.66;;;20.80;83.08
16580;BME280;8402;51.466;6.806;2022-10-26T12:00:19;101288.38;;;20.83;83.06
16580;BME280;8402;51.466;6.806;2022-10-26T12:02:50;101288.81;;;20.85;82.82
16580;BME280;8402;51.466;6.806;2022-10-26T12:05:22;101289.19;;;20.83;82.79
16580;BME280;8402;51.466;6.806;2022-10-26T12:07:53;101292.72;;;20.84;82.62
16580;BME280;8402;51.466;6.806;2022-10-26T12:10:25;101291.91;;;20.80;82.79
16580;BME280;8402;51.466;6.806;2022-10-26T12:13:00;101301.34;;;20.79;82.31
16580;BME280;8402;51.466;6.806;2022-10-26T12:15:38;101302.16;;;20.83;82.81
16580;BME280;8402;51.466;6.806;2022-10-26T12:18:33;101304.56;;;20.84;83.08
16580;BME280;8402;51.466;6.806;2022-10-26T12:21:24;101308.97;;;20.89;83.27
16580;BME280;8402;51.466;6.806;2022-10-26T12:23:54;101308.66;;;20.94;82.88
16580;BME280;8402;51.466;6.806;2022-10-26T12:26:49;101322.75;;;20.89;82.32
16580;BME280;8402;51.466;6.806;2022-10-26T12:29:35;101325.03;;;20.83;82.10
16580;BME280;8402;51.466;6.806;2022-10-26T12:35:39;101340.00;;;20.82;82.23
16580;BME280;8402;51.466;6.806;2022-10-26T12:41:24;101330.63;;;20.87;82.94
16580;BME280;8402;51.466;6.806;2022-10-26T12:43:56;101340.09;;;20.89;82.63
16580;BME280;8402;51.466;6.806;2022-10-26T12:46:40;101347.16;;;20.87;82.47
16580;BME280;8402;51.466;6.806;2022-10-26T12:52:28;101355.88;;;20.89;82.49
16580;BME280;8402;51.466;6.806;2022-10-26T12:55:24;101349.59;;;20.92;82.00
16580;BME280;8402;51.466;6.806;2022-10-26T12:58:05;101359.56;;;21.00;82.24
16580;BME280;8402;51.466;6.806;2022-10-26T13:00:40;101357.31;;;21.06;82.51
16580;BME280;8402;51.466;6.806;2022-10-26T13:03:20;101360.13;;;21.09;82.69
16580;BME280;8402;51.466;6.806;2022-10-26T13:06:16;101359.38;;;21.12;82.69
16580;BME280;8402;51.466;6.806;2022-10-26T13:08:54;101351.59;;;21.18;82.77
16580;BME280;8402;51.466;6.806;2022-10-26T13:11:30;101357.91;;;21.19;82.63
16580;BME280;8402;51.466;6.806;2022-10-26T13:14:01;101352.78;;;21.21;82.71
16580;BME280;8402;51.466;6.806;2022-10-26T13:16:30;101365.81;;;21.20;83.29
16580;BME280;8402;51.466;6.806;2022-10-26T13:18:59;101365.88;;;21.24;83.03
16580;BME280;8402;51.466;6.806;2022-10-26T13:21:27;101352.88;;;21.24;83.49
16580;BME280;8402;51.466;6.806;2022-10-26T13:23:57;101358.00;;;21.26;83.17
16580;BME280;8402;51.466;6.806;2022-10-26T13:26:28;101358.75;;;21.23;82.85
16580;BME280;8402;51.466;6.806;2022-10-26T13:28:58;101357.16;;;21.22;81.82
16580;BME280;8402;51.466;6.806;2022-10-26T13:31:51;101350.78;;;21.17;81.68
16580;BME280;8402;51.466;6.806;2022-10-26T13:34:22;101361.94;;;21.25;82.60
16580;BME280;8402;51.466;6.806;2022-10-26T13:36:58;101374.56;;;21.26;81.22
16580;BME280;8402;51.466;6.806;2022-10-26T13:39:31;101371.41;;;21.24;82.14
16580;BME280;8402;51.466;6.806;2022-10-26T13:41:59;101365.13;;;21.27;81.90